Westbrook, Minnesota
Current Conditions -  °F | °C
As of 1:13 AM on Wednesday 22 Oct 2014 (Local Time) from KTKC Reporting Station
Clear Clear  
Wind Chill: 52°   Ceiling: Unl
Heat Index: 52°   Visibility: 10mi
Dew Point: 42°   Wind: 15mph
Humidity: 69%   Direction: 180°S
Pressure: 30.05"   Gusts: 22mph
Location:  44.04°N, 95.44°W
Report Text: KTKC 220613Z AUTO 18013G19KT 10SM CLR 11/06 A3005 RMK AO2 T01100055
Loading
Personal Weather Stations






























Interactive Weather Map
Tropical Storm Tracking
New forecast layout! Learn more

10-Day Weather Forecast

Advertisements
Track Severe Weather on mobile